Check out our new PWSWeather beta!
PWSweather.com
Personal Weather Stations
Station Observations

PoschiavoCH

Lat: 46.31962499999999, Lon: 10.066551000000004

Elevation: 3517

Station Type: WH 1080

http://www.meteoposchiavo.com

High Low Average
Temperature 60.0°F15.6°C 37.0°F2.8°C 47.3°F8.5°C
Dew Point 43.8°F6.6°C 36.2°F2.3°C 39.2°F4.0°C
Winds 3.5 mph 5.6 kmh Calm Calm 1.0 mph NE1.6 kmh NE
Wind Gusts 5.8 mph9.3 kmh -- 1.0 mph1.6 kmh
Humidity 99% 45% 76%
Pressure 26.39 in893.7 mb 26.21 in887.6 mb -
Precipitation 0.00 in0.0 mm - -
Hour Temp Dew Point Humidity Winds Wind Gusts Pressure Precip Precip Rate Daily Precip Total
12:00 AM 40.0°F4.4°C 39.5°F4.2°C 98% Calm Calm 2.3 mph3.7 kmh 26.36 in892.7 mb - 0.00 in0.0 mm 0.00 in0.0 mm
12:10 AM 40.0°F4.4°C 39.5°F4.2°C 98% Calm Calm -- 26.36 in892.7 mb - 0.00 in0.0 mm 0.00 in0.0 mm
12:15 AM 40.0°F4.4°C 39.5°F4.2°C 98% Calm Calm -- 26.36 in892.7 mb - 0.00 in0.0 mm 0.00 in0.0 mm
12:20 AM 40.0°F4.4°C 39.5°F4.2°C 98% Calm Calm -- 26.36 in892.7 mb - 0.00 in0.0 mm 0.00 in0.0 mm
12:25 AM 39.0°F3.9°C 38.5°F3.6°C 98% Calm Calm -- 26.36 in892.7 mb - 0.00 in0.0 mm 0.00 in0.0 mm
12:30 AM 39.0°F3.9°C 38.5°F3.6°C 98% Calm Calm -- 26.36 in892.7 mb - 0.00 in0.0 mm 0.00 in0.0 mm
12:35 AM 39.0°F3.9°C 38.5°F3.6°C 98% Calm Calm -- 26.36 in892.7 mb - 0.00 in0.0 mm 0.00 in0.0 mm
12:40 AM 39.0°F3.9°C 38.5°F3.6°C 98% Calm Calm -- 26.36 in892.7 mb - 0.00 in0.0 mm 0.00 in0.0 mm
12:45 AM 39.0°F3.9°C 38.5°F3.6°C 98% Calm Calm -- 26.36 in892.7 mb - 0.00 in0.0 mm 0.00 in0.0 mm
12:50 AM 39.0°F3.9°C 38.5°F3.6°C 98% 1.2 mph N1.9 kmh N 2.3 mph3.7 kmh 26.36 in892.7 mb - 0.00 in0.0 mm 0.00 in0.0 mm
12:55 AM 39.0°F3.9°C 38.5°F3.6°C 98% Calm Calm -- 26.36 in892.7 mb - 0.00 in0.0 mm 0.00 in0.0 mm
01:00 AM 39.0°F3.9°C 38.5°F3.6°C 98% 1.2 mph N1.9 kmh N 1.2 mph1.9 kmh 26.36 in892.7 mb - 0.00 in0.0 mm 0.00 in0.0 mm
01:10 AM 39.0°F3.9°C 38.5°F3.6°C 98% 1.2 mph N1.9 kmh N 1.2 mph1.9 kmh 26.36 in892.7 mb - 0.00 in0.0 mm 0.00 in0.0 mm
01:15 AM 39.0°F3.9°C 38.2°F3.4°C 97% Calm Calm 1.2 mph1.9 kmh 26.36 in892.7 mb - 0.00 in0.0 mm 0.00 in0.0 mm
01:20 AM 39.0°F3.9°C 38.2°F3.4°C 97% 2.3 mph N3.7 kmh N 3.5 mph5.6 kmh 26.36 in892.7 mb - 0.00 in0.0 mm 0.00 in0.0 mm
01:25 AM 39.0°F3.9°C 38.2°F3.4°C 97% Calm Calm -- 26.36 in892.7 mb - 0.00 in0.0 mm 0.00 in0.0 mm
01:30 AM 39.0°F3.9°C 38.2°F3.4°C 97% Calm Calm 1.2 mph1.9 kmh 26.35 in892.3 mb - 0.00 in0.0 mm 0.00 in0.0 mm
01:35 AM 39.0°F3.9°C 38.5°F3.6°C 98% Calm Calm -- 26.34 in892.0 mb - 0.00 in0.0 mm 0.00 in0.0 mm
01:40 AM 39.0°F3.9°C 38.5°F3.6°C 98% Calm Calm -- 26.36 in892.7 mb - 0.00 in0.0 mm 0.00 in0.0 mm
01:45 AM 39.0°F3.9°C 38.5°F3.6°C 98% Calm Calm -- 26.36 in892.7 mb - 0.00 in0.0 mm 0.00 in0.0 mm
01:50 AM 39.0°F3.9°C 38.2°F3.4°C 97% Calm Calm -- 26.35 in892.3 mb - 0.00 in0.0 mm 0.00 in0.0 mm
01:55 AM 39.0°F3.9°C 38.5°F3.6°C 98% Calm Calm -- 26.35 in892.3 mb - 0.00 in0.0 mm 0.00 in0.0 mm
02:00 AM 39.0°F3.9°C 38.2°F3.4°C 97% Calm Calm 1.2 mph1.9 kmh 26.35 in892.3 mb - 0.00 in0.0 mm 0.00 in0.0 mm
02:10 AM 38.0°F3.3°C 37.2°F2.9°C 97% Calm Calm -- 26.35 in892.3 mb - 0.00 in0.0 mm 0.00 in0.0 mm
02:15 AM 38.0°F3.3°C 37.5°F3.1°C 98% Calm Calm -- 26.34 in892.0 mb - 0.00 in0.0 mm 0.00 in0.0 mm
02:20 AM 39.0°F3.9°C 38.5°F3.6°C 98% Calm Calm -- 26.34 in892.0 mb - 0.00 in0.0 mm 0.00 in0.0 mm
02:25 AM 39.0°F3.9°C 38.5°F3.6°C 98% Calm Calm -- 26.35 in892.3 mb - 0.00 in0.0 mm 0.00 in0.0 mm
02:30 AM 39.0°F3.9°C 38.5°F3.6°C 98% Calm Calm -- 26.34 in892.0 mb - 0.00 in0.0 mm 0.00 in0.0 mm
02:35 AM 38.0°F3.3°C 37.5°F3.1°C 98% Calm Calm -- 26.35 in892.3 mb - 0.00 in0.0 mm 0.00 in0.0 mm
02:40 AM 39.0°F3.9°C 38.5°F3.6°C 98% Calm Calm -- 26.35 in892.3 mb - 0.00 in0.0 mm 0.00 in0.0 mm
02:45 AM 39.0°F3.9°C 38.5°F3.6°C 98% Calm Calm -- 26.34 in892.0 mb - 0.00 in0.0 mm 0.00 in0.0 mm
02:50 AM 39.0°F3.9°C 38.5°F3.6°C 98% Calm Calm -- 26.34 in892.0 mb - 0.00 in0.0 mm 0.00 in0.0 mm
02:55 AM 39.0°F3.9°C 38.5°F3.6°C 98% Calm Calm -- 26.34 in892.0 mb - 0.00 in0.0 mm 0.00 in0.0 mm
03:00 AM 39.0°F3.9°C 38.5°F3.6°C 98% Calm Calm -- 26.34 in892.0 mb - 0.00 in0.0 mm 0.00 in0.0 mm
03:10 AM 38.0°F3.3°C 37.5°F3.1°C 98% Calm Calm -- 26.34 in892.0 mb - 0.00 in0.0 mm 0.00 in0.0 mm
03:15 AM 39.0°F3.9°C 38.5°F3.6°C 98% Calm Calm -- 26.34 in892.0 mb - 0.00 in0.0 mm 0.00 in0.0 mm
03:20 AM 39.0°F3.9°C 38.5°F3.6°C 98% Calm Calm -- 26.34 in892.0 mb - 0.00 in0.0 mm 0.00 in0.0 mm
03:25 AM 38.3°F3.5°C 37.8°F3.2°C 98% Calm Calm -- 26.33 in891.6 mb - 0.00 in0.0 mm 0.00 in0.0 mm
03:30 AM 38.0°F3.3°C 37.5°F3.1°C 98% Calm Calm -- 26.33 in891.6 mb - 0.00 in0.0 mm 0.00 in0.0 mm
03:35 AM 38.0°F3.3°C 37.5°F3.1°C 98% Calm Calm -- 26.32 in891.3 mb - 0.00 in0.0 mm 0.00 in0.0 mm
03:40 AM 38.0°F3.3°C 37.5°F3.1°C 98% Calm Calm -- 26.31 in891.0 mb - 0.00 in0.0 mm 0.00 in0.0 mm
03:45 AM 38.0°F3.3°C 37.5°F3.1°C 98% Calm Calm -- 26.31 in891.0 mb - 0.00 in0.0 mm 0.00 in0.0 mm
03:50 AM 38.0°F3.3°C 37.7°F3.2°C 99% Calm Calm -- 26.31 in891.0 mb - 0.00 in0.0 mm 0.00 in0.0 mm
03:55 AM 38.0°F3.3°C 37.7°F3.2°C 99% Calm Calm -- 26.31 in891.0 mb - 0.00 in0.0 mm 0.00 in0.0 mm
04:00 AM 38.0°F3.3°C 37.5°F3.1°C 98% Calm Calm -- 26.31 in891.0 mb - 0.00 in0.0 mm 0.00 in0.0 mm
04:10 AM 38.0°F3.3°C 37.5°F3.1°C 98% Calm Calm -- 26.31 in891.0 mb - 0.00 in0.0 mm 0.00 in0.0 mm
04:15 AM 38.0°F3.3°C 37.5°F3.1°C 98% Calm Calm -- 26.31 in891.0 mb - 0.00 in0.0 mm 0.00 in0.0 mm
04:20 AM 38.0°F3.3°C 37.5°F3.1°C 98% Calm Calm -- 26.31 in891.0 mb - 0.00 in0.0 mm 0.00 in0.0 mm
04:25 AM 37.0°F2.8°C 36.5°F2.5°C 98% Calm Calm -- 26.30 in890.6 mb - 0.00 in0.0 mm 0.00 in0.0 mm
04:30 AM 38.0°F3.3°C 37.5°F3.1°C 98% Calm Calm -- 26.29 in890.3 mb - 0.00 in0.0 mm 0.00 in0.0 mm
04:35 AM 38.0°F3.3°C 37.5°F3.1°C 98% Calm Calm -- 26.29 in890.3 mb - 0.00 in0.0 mm 0.00 in0.0 mm
04:40 AM 38.0°F3.3°C 37.5°F3.1°C 98% Calm Calm -- 26.30 in890.6 mb - 0.00 in0.0 mm 0.00 in0.0 mm
04:45 AM 37.0°F2.8°C 36.5°F2.5°C 98% Calm Calm -- 26.31 in891.0 mb - 0.00 in0.0 mm 0.00 in0.0 mm
04:50 AM 37.0°F2.8°C 36.5°F2.5°C 98% Calm Calm -- 26.29 in890.3 mb - 0.00 in0.0 mm 0.00 in0.0 mm
04:55 AM 37.0°F2.8°C 36.5°F2.5°C 98% Calm Calm -- 26.29 in890.3 mb - 0.00 in0.0 mm 0.00 in0.0 mm
05:00 AM 37.0°F2.8°C 36.5°F2.5°C 98% Calm Calm -- 26.30 in890.6 mb - 0.00 in0.0 mm 0.00 in0.0 mm
05:10 AM 37.0°F2.8°C 36.2°F2.3°C 97% Calm Calm -- 26.29 in890.3 mb - 0.00 in0.0 mm 0.00 in0.0 mm
05:15 AM 37.0°F2.8°C 36.2°F2.3°C 97% Calm Calm -- 26.29 in890.3 mb - 0.00 in0.0 mm 0.00 in0.0 mm
05:20 AM 37.0°F2.8°C 36.2°F2.3°C 97% Calm Calm -- 26.29 in890.3 mb - 0.00 in0.0 mm 0.00 in0.0 mm
05:25 AM 37.0°F2.8°C 36.2°F2.3°C 97% Calm Calm -- 26.29 in890.3 mb - 0.00 in0.0 mm 0.00 in0.0 mm
05:30 AM 37.0°F2.8°C 36.5°F2.5°C 98% Calm Calm -- 26.29 in890.3 mb - 0.00 in0.0 mm 0.00 in0.0 mm
05:35 AM 37.0°F2.8°C 36.5°F2.5°C 98% Calm Calm -- 26.29 in890.3 mb - 0.00 in0.0 mm 0.00 in0.0 mm
05:40 AM 37.0°F2.8°C 36.5°F2.5°C 98% Calm Calm -- 26.29 in890.3 mb - 0.00 in0.0 mm 0.00 in0.0 mm
05:45 AM 37.0°F2.8°C 36.5°F2.5°C 98% Calm Calm -- 26.29 in890.3 mb - 0.00 in0.0 mm 0.00 in0.0 mm
05:50 AM 37.0°F2.8°C 36.5°F2.5°C 98% Calm Calm -- 26.30 in890.6 mb - 0.00 in0.0 mm 0.00 in0.0 mm
05:55 AM 37.0°F2.8°C 36.5°F2.5°C 98% Calm Calm -- 26.30 in890.6 mb - 0.00 in0.0 mm 0.00 in0.0 mm
06:00 AM 37.0°F2.8°C 36.5°F2.5°C 98% Calm Calm -- 26.28 in889.9 mb - 0.00 in0.0 mm 0.00 in0.0 mm
06:10 AM 38.0°F3.3°C 37.2°F2.9°C 97% Calm Calm -- 26.29 in890.3 mb - 0.00 in0.0 mm 0.00 in0.0 mm
06:15 AM 38.0°F3.3°C 37.2°F2.9°C 97% Calm Calm -- 26.29 in890.3 mb - 0.00 in0.0 mm 0.00 in0.0 mm
06:20 AM 38.0°F3.3°C 37.2°F2.9°C 97% Calm Calm -- 26.29 in890.3 mb - 0.00 in0.0 mm 0.00 in0.0 mm
06:25 AM 38.0°F3.3°C 37.2°F2.9°C 97% Calm Calm -- 26.29 in890.3 mb - 0.00 in0.0 mm 0.00 in0.0 mm
06:30 AM 38.0°F3.3°C 37.2°F2.9°C 97% Calm Calm -- 26.29 in890.3 mb - 0.00 in0.0 mm 0.00 in0.0 mm
06:35 AM 38.0°F3.3°C 37.2°F2.9°C 97% Calm Calm -- 26.29 in890.3 mb - 0.00 in0.0 mm 0.00 in0.0 mm
06:40 AM 38.0°F3.3°C 37.5°F3.1°C 98% Calm Calm -- 26.29 in890.3 mb - 0.00 in0.0 mm 0.00 in0.0 mm
06:45 AM 38.0°F3.3°C 37.2°F2.9°C 97% Calm Calm -- 26.29 in890.3 mb - 0.00 in0.0 mm 0.00 in0.0 mm
06:50 AM 38.0°F3.3°C 37.5°F3.1°C 98% Calm Calm -- 26.29 in890.3 mb - 0.00 in0.0 mm 0.00 in0.0 mm
06:55 AM 38.0°F3.3°C 37.2°F2.9°C 97% Calm Calm -- 26.29 in890.3 mb - 0.00 in0.0 mm 0.00 in0.0 mm
07:00 AM 39.0°F3.9°C 38.5°F3.6°C 98% Calm Calm -- 26.29 in890.3 mb - 0.00 in0.0 mm 0.00 in0.0 mm
07:10 AM 39.0°F3.9°C 38.2°F3.4°C 97% Calm Calm -- 26.28 in889.9 mb - 0.00 in0.0 mm 0.00 in0.0 mm
07:15 AM 39.0°F3.9°C 38.2°F3.4°C 97% Calm Calm -- 26.29 in890.3 mb - 0.00 in0.0 mm 0.00 in0.0 mm
07:20 AM 39.0°F3.9°C 38.0°F3.3°C 96% Calm Calm -- 26.28 in889.9 mb - 0.00 in0.0 mm 0.00 in0.0 mm
07:25 AM 39.0°F3.9°C 38.0°F3.3°C 96% Calm Calm -- 26.28 in889.9 mb - 0.00 in0.0 mm 0.00 in0.0 mm
07:30 AM 39.0°F3.9°C 37.7°F3.2°C 95% Calm Calm -- 26.29 in890.3 mb - 0.00 in0.0 mm 0.00 in0.0 mm
07:35 AM 39.0°F3.9°C 37.7°F3.2°C 95% Calm Calm -- 26.29 in890.3 mb - 0.00 in0.0 mm 0.00 in0.0 mm
07:40 AM 39.0°F3.9°C 38.0°F3.3°C 96% Calm Calm -- 26.29 in890.3 mb - 0.00 in0.0 mm 0.00 in0.0 mm
07:45 AM 39.0°F3.9°C 37.7°F3.2°C 95% Calm Calm -- 26.29 in890.3 mb - 0.00 in0.0 mm 0.00 in0.0 mm
07:50 AM 40.0°F4.4°C 38.4°F3.6°C 94% Calm Calm -- 26.29 in890.3 mb - 0.00 in0.0 mm 0.00 in0.0 mm
07:55 AM 41.0°F5.0°C 39.4°F4.1°C 94% Calm Calm -- 26.28 in889.9 mb - 0.00 in0.0 mm 0.00 in0.0 mm
08:00 AM 41.0°F5.0°C 38.9°F3.8°C 92% Calm Calm -- 26.28 in889.9 mb - 0.00 in0.0 mm 0.00 in0.0 mm
08:10 AM 42.0°F5.6°C 39.6°F4.2°C 91% Calm Calm -- 26.28 in889.9 mb - 0.00 in0.0 mm 0.00 in0.0 mm
08:15 AM 43.0°F6.1°C 40.8°F4.9°C 92% Calm Calm -- 26.28 in889.9 mb - 0.00 in0.0 mm 0.00 in0.0 mm
08:20 AM 43.0°F6.1°C 40.8°F4.9°C 92% Calm Calm 1.2 mph1.9 kmh 26.28 in889.9 mb - 0.00 in0.0 mm 0.00 in0.0 mm
08:25 AM 44.0°F6.7°C 41.0°F5.0°C 89% 1.2 mph N1.9 kmh N 2.3 mph3.7 kmh 26.28 in889.9 mb - 0.00 in0.0 mm 0.00 in0.0 mm
08:30 AM 44.0°F6.7°C 41.8°F5.4°C 92% Calm Calm 2.3 mph3.7 kmh 26.27 in889.6 mb - 0.00 in0.0 mm 0.00 in0.0 mm
08:35 AM 43.0°F6.1°C 40.8°F4.9°C 92% Calm Calm -- 26.27 in889.6 mb - 0.00 in0.0 mm 0.00 in0.0 mm
08:40 AM 44.0°F6.7°C 41.5°F5.3°C 91% Calm Calm -- 26.27 in889.6 mb - 0.00 in0.0 mm 0.00 in0.0 mm
08:45 AM 44.0°F6.7°C 39.8°F4.3°C 85% Calm Calm -- 26.27 in889.6 mb - 0.00 in0.0 mm 0.00 in0.0 mm
08:50 AM 45.0°F7.2°C 40.1°F4.5°C 83% 1.2 mph N1.9 kmh N 1.2 mph1.9 kmh 26.27 in889.6 mb - 0.00 in0.0 mm 0.00 in0.0 mm
08:55 AM 45.0°F7.2°C 40.1°F4.5°C 83% 1.2 mph N1.9 kmh N 1.2 mph1.9 kmh 26.26 in889.3 mb - 0.00 in0.0 mm 0.00 in0.0 mm
09:00 AM 45.0°F7.2°C 40.1°F4.5°C 83% 1.2 mph N1.9 kmh N 1.2 mph1.9 kmh 26.26 in889.3 mb - 0.00 in0.0 mm 0.00 in0.0 mm
09:10 AM 47.0°F8.3°C 40.8°F4.9°C 79% Calm Calm -- 26.27 in889.6 mb - 0.00 in0.0 mm 0.00 in0.0 mm
09:15 AM 48.0°F8.9°C 41.5°F5.3°C 78% Calm Calm 1.2 mph1.9 kmh 26.27 in889.6 mb - 0.00 in0.0 mm 0.00 in0.0 mm
09:20 AM 48.7°F9.3°C 41.4°F5.2°C 76% Calm Calm 1.2 mph1.9 kmh 26.26 in889.3 mb - 0.00 in0.0 mm 0.00 in0.0 mm
09:25 AM 49.0°F9.4°C 41.4°F5.2°C 75% Calm Calm -- 26.26 in889.3 mb - 0.00 in0.0 mm 0.00 in0.0 mm
09:30 AM 50.0°F10.0°C 41.3°F5.2°C 72% Calm Calm -- 26.26 in889.3 mb - 0.00 in0.0 mm 0.00 in0.0 mm
09:35 AM 51.0°F10.6°C 40.4°F4.7°C 67% Calm Calm 1.2 mph1.9 kmh 26.26 in889.3 mb - 0.00 in0.0 mm 0.00 in0.0 mm
09:40 AM 50.0°F10.0°C 40.6°F4.8°C 70% Calm Calm 1.2 mph1.9 kmh 26.26 in889.3 mb - 0.00 in0.0 mm 0.00 in0.0 mm
09:45 AM 51.0°F10.6°C 41.9°F5.5°C 71% 1.2 mph N1.9 kmh N 1.2 mph1.9 kmh 26.26 in889.3 mb - 0.00 in0.0 mm 0.00 in0.0 mm
09:50 AM 51.4°F10.8°C 41.6°F5.3°C 69% 1.2 mph N1.9 kmh N 1.2 mph1.9 kmh 26.26 in889.3 mb - 0.00 in0.0 mm 0.00 in0.0 mm
09:55 AM 52.0°F11.1°C 40.6°F4.8°C 65% Calm Calm 1.2 mph1.9 kmh 26.26 in889.3 mb - 0.00 in0.0 mm 0.00 in0.0 mm
10:00 AM 51.0°F10.6°C 40.0°F4.4°C 66% Calm Calm -- 26.25 in888.9 mb - 0.00 in0.0 mm 0.00 in0.0 mm
10:10 AM 52.0°F11.1°C 41.8°F5.4°C 68% 2.3 mph N3.7 kmh N 2.3 mph3.7 kmh 26.25 in888.9 mb - 0.00 in0.0 mm 0.00 in0.0 mm
10:15 AM 52.0°F11.1°C 41.8°F5.4°C 68% Calm Calm 2.3 mph3.7 kmh 26.26 in889.3 mb - 0.00 in0.0 mm 0.00 in0.0 mm
10:20 AM 52.0°F11.1°C 41.8°F5.4°C 68% Calm Calm 2.3 mph3.7 kmh 26.26 in889.3 mb - 0.00 in0.0 mm 0.00 in0.0 mm
10:25 AM 52.0°F11.1°C 39.8°F4.3°C 63% 2.3 mph N3.7 kmh N 2.3 mph3.7 kmh 26.25 in888.9 mb - 0.00 in0.0 mm 0.00 in0.0 mm
10:30 AM 53.0°F11.7°C 42.7°F5.9°C 68% 1.2 mph N1.9 kmh N 1.2 mph1.9 kmh 26.24 in888.6 mb - 0.00 in0.0 mm 0.00 in0.0 mm
10:35 AM 52.0°F11.1°C 41.8°F5.4°C 68% 3.5 mph NNW5.6 kmh NNW 3.5 mph5.6 kmh 26.23 in888.3 mb - 0.00 in0.0 mm 0.00 in0.0 mm
10:40 AM 52.0°F11.1°C 41.4°F5.2°C 67% 2.3 mph N3.7 kmh N 3.5 mph5.6 kmh 26.25 in888.9 mb - 0.00 in0.0 mm 0.00 in0.0 mm
10:45 AM 53.1°F11.7°C 41.6°F5.3°C 65% 2.3 mph N3.7 kmh N 3.5 mph5.6 kmh 26.24 in888.6 mb - 0.00 in0.0 mm 0.00 in0.0 mm
10:50 AM 54.0°F12.2°C 42.1°F5.6°C 64% 2.3 mph N3.7 kmh N 3.5 mph5.6 kmh 26.23 in888.3 mb - 0.00 in0.0 mm 0.00 in0.0 mm
10:55 AM 54.0°F12.2°C 40.0°F4.4°C 59% 3.5 mph N5.6 kmh N 5.8 mph9.3 kmh 26.23 in888.3 mb - 0.00 in0.0 mm 0.00 in0.0 mm
11:00 AM 54.0°F12.2°C 40.8°F4.9°C 61% 2.3 mph N3.7 kmh N 3.5 mph5.6 kmh 26.24 in888.6 mb - 0.00 in0.0 mm 0.00 in0.0 mm
11:10 AM 55.0°F12.8°C 38.6°F3.7°C 54% 2.3 mph N3.7 kmh N 3.5 mph5.6 kmh 26.24 in888.6 mb - 0.00 in0.0 mm 0.00 in0.0 mm
11:15 AM 55.0°F12.8°C 39.1°F3.9°C 55% 1.2 mph N1.9 kmh N 3.5 mph5.6 kmh 26.24 in888.6 mb - 0.00 in0.0 mm 0.00 in0.0 mm
11:20 AM 55.0°F12.8°C 40.0°F4.4°C 57% 1.2 mph N1.9 kmh N 2.3 mph3.7 kmh 26.24 in888.6 mb - 0.00 in0.0 mm 0.00 in0.0 mm
11:25 AM 55.0°F12.8°C 40.0°F4.4°C 57% 3.5 mph N5.6 kmh N 3.5 mph5.6 kmh 26.23 in888.3 mb - 0.00 in0.0 mm 0.00 in0.0 mm
11:30 AM 54.0°F12.2°C 40.0°F4.4°C 59% 1.2 mph N1.9 kmh N 1.2 mph1.9 kmh 26.23 in888.3 mb - 0.00 in0.0 mm 0.00 in0.0 mm
11:35 AM 54.0°F12.2°C 41.7°F5.4°C 63% 1.2 mph N1.9 kmh N 1.2 mph1.9 kmh 26.23 in888.3 mb - 0.00 in0.0 mm 0.00 in0.0 mm
11:40 AM 55.0°F12.8°C 40.5°F4.7°C 58% 2.3 mph N3.7 kmh N 2.3 mph3.7 kmh 26.24 in888.6 mb - 0.00 in0.0 mm 0.00 in0.0 mm
11:45 AM 55.3°F12.9°C 40.7°F4.8°C 58% 2.3 mph N3.7 kmh N 3.5 mph5.6 kmh 26.24 in888.6 mb - 0.00 in0.0 mm 0.00 in0.0 mm
11:50 AM 56.0°F13.3°C 41.4°F5.2°C 58% 2.3 mph N3.7 kmh N 3.5 mph5.6 kmh 26.23 in888.3 mb - 0.00 in0.0 mm 0.00 in0.0 mm
11:55 AM 57.0°F13.9°C 40.0°F4.4°C 53% 3.5 mph N5.6 kmh N 3.5 mph5.6 kmh 26.23 in888.3 mb - 0.00 in0.0 mm 0.00 in0.0 mm
12:00 PM 55.0°F12.8°C 40.5°F4.7°C 58% 3.5 mph N5.6 kmh N 3.5 mph5.6 kmh 26.23 in888.3 mb - 0.00 in0.0 mm 0.00 in0.0 mm
12:10 PM 57.0°F13.9°C 38.5°F3.6°C 50% 2.3 mph N3.7 kmh N 3.5 mph5.6 kmh 26.23 in888.3 mb - 0.00 in0.0 mm 0.00 in0.0 mm
12:15 PM 57.0°F13.9°C 39.0°F3.9°C 51% 2.3 mph N3.7 kmh N 3.5 mph5.6 kmh 26.23 in888.3 mb - 0.00 in0.0 mm 0.00 in0.0 mm
12:20 PM 56.0°F13.3°C 40.5°F4.7°C 56% 3.5 mph N5.6 kmh N 3.5 mph5.6 kmh 26.23 in888.3 mb - 0.00 in0.0 mm 0.00 in0.0 mm
12:25 PM 58.0°F14.4°C 40.5°F4.7°C 52% 3.5 mph N5.6 kmh N 3.5 mph5.6 kmh 26.23 in888.3 mb - 0.00 in0.0 mm 0.00 in0.0 mm
12:30 PM 58.0°F14.4°C 41.9°F5.5°C 55% 2.3 mph N3.7 kmh N 3.5 mph5.6 kmh 26.23 in888.3 mb - 0.00 in0.0 mm 0.00 in0.0 mm
12:35 PM 57.0°F13.9°C 40.0°F4.4°C 53% 3.5 mph N5.6 kmh N 5.8 mph9.3 kmh 26.22 in887.9 mb - 0.00 in0.0 mm 0.00 in0.0 mm
12:40 PM 57.0°F13.9°C 41.9°F5.5°C 57% 3.5 mph N5.6 kmh N 3.5 mph5.6 kmh 26.23 in888.3 mb - 0.00 in0.0 mm 0.00 in0.0 mm
12:45 PM 57.5°F14.2°C 42.4°F5.8°C 57% 3.5 mph N5.6 kmh N 5.8 mph9.3 kmh 26.23 in888.3 mb - 0.00 in0.0 mm 0.00 in0.0 mm
12:50 PM 59.0°F15.0°C 43.8°F6.6°C 57% 3.5 mph N5.6 kmh N 5.8 mph9.3 kmh 26.22 in887.9 mb - 0.00 in0.0 mm 0.00 in0.0 mm
12:55 PM 58.0°F14.4°C 41.9°F5.5°C 55% 2.3 mph N3.7 kmh N 3.5 mph5.6 kmh 26.22 in887.9 mb - 0.00 in0.0 mm 0.00 in0.0 mm
01:00 PM 58.0°F14.4°C 39.5°F4.2°C 50% 3.5 mph N5.6 kmh N 5.8 mph9.3 kmh 26.22 in887.9 mb - 0.00 in0.0 mm 0.00 in0.0 mm
01:10 PM 55.0°F12.8°C 37.7°F3.2°C 52% Calm Calm 1.2 mph1.9 kmh 26.22 in887.9 mb - 0.00 in0.0 mm 0.00 in0.0 mm
01:15 PM 55.0°F12.8°C 38.6°F3.7°C 54% Calm Calm 1.2 mph1.9 kmh 26.22 in887.9 mb - 0.00 in0.0 mm 0.00 in0.0 mm
01:20 PM 55.0°F12.8°C 40.9°F4.9°C 59% Calm Calm 1.2 mph1.9 kmh 26.22 in887.9 mb - 0.00 in0.0 mm 0.00 in0.0 mm
01:25 PM 55.0°F12.8°C 39.6°F4.2°C 56% 2.3 mph N3.7 kmh N 3.5 mph5.6 kmh 26.23 in888.3 mb - 0.00 in0.0 mm 0.00 in0.0 mm
01:30 PM 54.0°F12.2°C 40.0°F4.4°C 59% 2.3 mph N3.7 kmh N 3.5 mph5.6 kmh 26.22 in887.9 mb - 0.00 in0.0 mm 0.00 in0.0 mm
01:35 PM 54.0°F12.2°C 39.5°F4.2°C 58% 1.2 mph N1.9 kmh N 2.3 mph3.7 kmh 26.23 in888.3 mb - 0.00 in0.0 mm 0.00 in0.0 mm
01:40 PM 55.0°F12.8°C 39.6°F4.2°C 56% 1.2 mph N1.9 kmh N 2.3 mph3.7 kmh 26.23 in888.3 mb - 0.00 in0.0 mm 0.00 in0.0 mm
01:45 PM 55.4°F13.0°C 40.4°F4.7°C 57% 1.2 mph N1.9 kmh N 3.5 mph5.6 kmh 26.23 in888.3 mb - 0.00 in0.0 mm 0.00 in0.0 mm
01:50 PM 56.0°F13.3°C 41.4°F5.2°C 58% 2.3 mph N3.7 kmh N 3.5 mph5.6 kmh 26.23 in888.3 mb - 0.00 in0.0 mm 0.00 in0.0 mm
01:55 PM 57.0°F13.9°C 41.0°F5.0°C 55% 2.3 mph NW3.7 kmh NW 3.5 mph5.6 kmh 26.23 in888.3 mb - 0.00 in0.0 mm 0.00 in0.0 mm
02:00 PM 57.0°F13.9°C 41.4°F5.2°C 56% 2.3 mph N3.7 kmh N 3.5 mph5.6 kmh 26.22 in887.9 mb - 0.00 in0.0 mm 0.00 in0.0 mm
02:10 PM 55.0°F12.8°C 40.0°F4.4°C 57% 1.2 mph N1.9 kmh N 2.3 mph3.7 kmh 26.22 in887.9 mb - 0.00 in0.0 mm 0.00 in0.0 mm
02:15 PM 55.8°F13.2°C 40.3°F4.6°C 56% 1.2 mph N1.9 kmh N 3.5 mph5.6 kmh 26.22 in887.9 mb - 0.00 in0.0 mm 0.00 in0.0 mm
02:20 PM 57.0°F13.9°C 41.0°F5.0°C 55% 2.3 mph N3.7 kmh N 3.5 mph5.6 kmh 26.22 in887.9 mb - 0.00 in0.0 mm 0.00 in0.0 mm
02:25 PM 57.0°F13.9°C 40.0°F4.4°C 53% 2.3 mph N3.7 kmh N 3.5 mph5.6 kmh 26.22 in887.9 mb - 0.00 in0.0 mm 0.00 in0.0 mm
02:30 PM 57.0°F13.9°C 42.4°F5.8°C 58% 2.3 mph NNE3.7 kmh NNE 3.5 mph5.6 kmh 26.22 in887.9 mb - 0.00 in0.0 mm 0.00 in0.0 mm
02:35 PM 57.0°F13.9°C 41.0°F5.0°C 55% 1.2 mph N1.9 kmh N 2.3 mph3.7 kmh 26.22 in887.9 mb - 0.00 in0.0 mm 0.00 in0.0 mm
02:40 PM 57.0°F13.9°C 39.0°F3.9°C 51% 3.5 mph N5.6 kmh N 3.5 mph5.6 kmh 26.22 in887.9 mb - 0.00 in0.0 mm 0.00 in0.0 mm
02:45 PM 57.0°F13.9°C 39.5°F4.2°C 52% 2.3 mph N3.7 kmh N 3.5 mph5.6 kmh 26.22 in887.9 mb - 0.00 in0.0 mm 0.00 in0.0 mm
02:50 PM 57.0°F13.9°C 40.0°F4.4°C 53% 1.2 mph N1.9 kmh N 1.2 mph1.9 kmh 26.21 in887.6 mb - 0.00 in0.0 mm 0.00 in0.0 mm
02:55 PM 60.0°F15.6°C 40.8°F4.9°C 49% 3.5 mph N5.6 kmh N 3.5 mph5.6 kmh 26.21 in887.6 mb - 0.00 in0.0 mm 0.00 in0.0 mm
03:00 PM 60.0°F15.6°C 40.8°F4.9°C 49% 3.5 mph N5.6 kmh N 5.8 mph9.3 kmh 26.22 in887.9 mb - 0.00 in0.0 mm 0.00 in0.0 mm
03:10 PM 58.0°F14.4°C 40.5°F4.7°C 52% 1.2 mph NNE1.9 kmh NNE 1.2 mph1.9 kmh 26.22 in887.9 mb - 0.00 in0.0 mm 0.00 in0.0 mm
03:15 PM 57.7°F14.3°C 39.7°F4.3°C 51% 1.2 mph N1.9 kmh N 3.5 mph5.6 kmh 26.22 in887.9 mb - 0.00 in0.0 mm 0.00 in0.0 mm
03:20 PM 57.0°F13.9°C 38.5°F3.6°C 50% 2.3 mph N3.7 kmh N 3.5 mph5.6 kmh 26.21 in887.6 mb - 0.00 in0.0 mm 0.00 in0.0 mm
03:25 PM 56.0°F13.3°C 38.1°F3.4°C 51% 2.3 mph N3.7 kmh N 2.3 mph3.7 kmh 26.21 in887.6 mb - 0.00 in0.0 mm 0.00 in0.0 mm
03:30 PM 57.0°F13.9°C 38.5°F3.6°C 50% 3.5 mph N5.6 kmh N 3.5 mph5.6 kmh 26.21 in887.6 mb - 0.00 in0.0 mm 0.00 in0.0 mm
03:35 PM 59.0°F15.0°C 37.7°F3.2°C 45% 2.3 mph N3.7 kmh N 2.3 mph3.7 kmh 26.22 in887.9 mb - 0.00 in0.0 mm 0.00 in0.0 mm
03:40 PM 59.0°F15.0°C 39.3°F4.1°C 48% 2.3 mph N3.7 kmh N 3.5 mph5.6 kmh 26.21 in887.6 mb - 0.00 in0.0 mm 0.00 in0.0 mm
03:45 PM 59.0°F15.0°C 39.3°F4.1°C 48% 1.2 mph N1.9 kmh N 3.5 mph5.6 kmh 26.21 in887.6 mb - 0.00 in0.0 mm 0.00 in0.0 mm
03:50 PM 59.0°F15.0°C 40.4°F4.7°C 50% Calm Calm 1.2 mph1.9 kmh 26.22 in887.9 mb - 0.00 in0.0 mm 0.00 in0.0 mm
03:55 PM 58.0°F14.4°C 40.0°F4.4°C 51% 1.2 mph N1.9 kmh N 1.2 mph1.9 kmh 26.22 in887.9 mb - 0.00 in0.0 mm 0.00 in0.0 mm
04:00 PM 57.0°F13.9°C 38.5°F3.6°C 50% 1.2 mph N1.9 kmh N 1.2 mph1.9 kmh 26.22 in887.9 mb - 0.00 in0.0 mm 0.00 in0.0 mm
04:10 PM 58.0°F14.4°C 37.3°F2.9°C 46% 1.2 mph N1.9 kmh N 2.3 mph3.7 kmh 26.22 in887.9 mb - 0.00 in0.0 mm 0.00 in0.0 mm
04:15 PM 58.0°F14.4°C 37.3°F2.9°C 46% 1.2 mph N1.9 kmh N 2.3 mph3.7 kmh 26.22 in887.9 mb - 0.00 in0.0 mm 0.00 in0.0 mm
04:20 PM 57.0°F13.9°C 39.5°F4.2°C 52% Calm Calm -- 26.22 in887.9 mb - 0.00 in0.0 mm 0.00 in0.0 mm
04:25 PM 58.0°F14.4°C 38.4°F3.6°C 48% 1.2 mph N1.9 kmh N 2.3 mph3.7 kmh 26.22 in887.9 mb - 0.00 in0.0 mm 0.00 in0.0 mm
04:30 PM 58.0°F14.4°C 37.9°F3.3°C 47% Calm Calm -- 26.23 in888.3 mb - 0.00 in0.0 mm 0.00 in0.0 mm
04:35 PM 58.0°F14.4°C 38.4°F3.6°C 48% Calm Calm -- 26.23 in888.3 mb - 0.00 in0.0 mm 0.00 in0.0 mm
04:40 PM 58.1°F14.5°C 38.5°F3.6°C 48% Calm Calm 3.5 mph5.6 kmh 26.23 in888.3 mb - 0.00 in0.0 mm 0.00 in0.0 mm
04:45 PM 59.0°F15.0°C 39.3°F4.1°C 48% 2.3 mph N3.7 kmh N 3.5 mph5.6 kmh 26.22 in887.9 mb - 0.00 in0.0 mm 0.00 in0.0 mm
04:50 PM 59.0°F15.0°C 40.4°F4.7°C 50% 1.2 mph N1.9 kmh N 1.2 mph1.9 kmh 26.22 in887.9 mb - 0.00 in0.0 mm 0.00 in0.0 mm
04:55 PM 57.0°F13.9°C 39.0°F3.9°C 51% Calm Calm -- 26.22 in887.9 mb - 0.00 in0.0 mm 0.00 in0.0 mm
05:00 PM 57.0°F13.9°C 37.5°F3.1°C 48% 1.2 mph N1.9 kmh N 2.3 mph3.7 kmh 26.23 in888.3 mb - 0.00 in0.0 mm 0.00 in0.0 mm
05:10 PM 57.0°F13.9°C 40.0°F4.4°C 53% Calm Calm -- 26.23 in888.3 mb - 0.00 in0.0 mm 0.00 in0.0 mm
05:15 PM 56.0°F13.3°C 37.6°F3.1°C 50% Calm Calm 1.2 mph1.9 kmh 26.23 in888.3 mb - 0.00 in0.0 mm 0.00 in0.0 mm
05:20 PM 57.0°F13.9°C 37.5°F3.1°C 48% Calm Calm -- 26.23 in888.3 mb - 0.00 in0.0 mm 0.00 in0.0 mm
05:25 PM 57.0°F13.9°C 37.5°F3.1°C 48% Calm Calm -- 26.23 in888.3 mb - 0.00 in0.0 mm 0.00 in0.0 mm
05:30 PM 57.5°F14.2°C 37.9°F3.3°C 48% Calm Calm -- 26.23 in888.3 mb - 0.00 in0.0 mm 0.00 in0.0 mm
05:35 PM 58.0°F14.4°C 38.4°F3.6°C 48% Calm Calm -- 26.23 in888.3 mb - 0.00 in0.0 mm 0.00 in0.0 mm
05:40 PM 58.0°F14.4°C 40.5°F4.7°C 52% Calm Calm -- 26.23 in888.3 mb - 0.00 in0.0 mm 0.00 in0.0 mm
05:45 PM 59.0°F15.0°C 39.9°F4.4°C 49% Calm Calm 1.2 mph1.9 kmh 26.23 in888.3 mb - 0.00 in0.0 mm 0.00 in0.0 mm
05:50 PM 57.0°F13.9°C 39.0°F3.9°C 51% Calm Calm -- 26.23 in888.3 mb - 0.00 in0.0 mm 0.00 in0.0 mm
05:55 PM 58.0°F14.4°C 39.5°F4.2°C 50% Calm Calm -- 26.24 in888.6 mb - 0.00 in0.0 mm 0.00 in0.0 mm
06:00 PM 57.6°F14.2°C 39.0°F3.9°C 50% Calm Calm 1.2 mph1.9 kmh 26.23 in888.3 mb - 0.00 in0.0 mm 0.00 in0.0 mm
06:10 PM 56.0°F13.3°C 39.1°F3.9°C 53% Calm Calm -- 26.24 in888.6 mb - 0.00 in0.0 mm 0.00 in0.0 mm
06:15 PM 56.0°F13.3°C 37.6°F3.1°C 50% Calm Calm -- 26.24 in888.6 mb - 0.00 in0.0 mm 0.00 in0.0 mm
06:20 PM 55.0°F12.8°C 38.6°F3.7°C 54% 1.2 mph N1.9 kmh N 1.2 mph1.9 kmh 26.25 in888.9 mb - 0.00 in0.0 mm 0.00 in0.0 mm
06:25 PM 55.0°F12.8°C 40.0°F4.4°C 57% Calm Calm -- 26.25 in888.9 mb - 0.00 in0.0 mm 0.00 in0.0 mm
06:30 PM 54.7°F12.6°C 39.7°F4.3°C 57% Calm Calm -- 26.25 in888.9 mb - 0.00 in0.0 mm 0.00 in0.0 mm
06:35 PM 54.0°F12.2°C 38.6°F3.7°C 56% Calm Calm -- 26.26 in889.3 mb - 0.00 in0.0 mm 0.00 in0.0 mm
06:40 PM 54.0°F12.2°C 38.2°F3.4°C 55% Calm Calm -- 26.26 in889.3 mb - 0.00 in0.0 mm 0.00 in0.0 mm
06:45 PM 54.0°F12.2°C 40.4°F4.7°C 60% Calm Calm -- 26.27 in889.6 mb - 0.00 in0.0 mm 0.00 in0.0 mm
06:50 PM 54.0°F12.2°C 38.6°F3.7°C 56% Calm Calm -- 26.26 in889.3 mb - 0.00 in0.0 mm 0.00 in0.0 mm
06:55 PM 54.0°F12.2°C 39.1°F3.9°C 57% Calm Calm -- 26.27 in889.6 mb - 0.00 in0.0 mm 0.00 in0.0 mm
07:00 PM 54.0°F12.2°C 39.5°F4.2°C 58% Calm Calm -- 26.27 in889.6 mb - 0.00 in0.0 mm 0.00 in0.0 mm
07:10 PM 53.0°F11.7°C 39.5°F4.2°C 60% Calm Calm -- 26.27 in889.6 mb - 0.00 in0.0 mm 0.00 in0.0 mm
07:15 PM 53.0°F11.7°C 40.7°F4.8°C 63% Calm Calm -- 26.28 in889.9 mb - 0.00 in0.0 mm 0.00 in0.0 mm
07:20 PM 52.0°F11.1°C 40.6°F4.8°C 65% Calm Calm -- 26.28 in889.9 mb - 0.00 in0.0 mm 0.00 in0.0 mm
07:25 PM 51.0°F10.6°C 40.8°F4.9°C 68% Calm Calm -- 26.28 in889.9 mb - 0.00 in0.0 mm 0.00 in0.0 mm
07:30 PM 51.0°F10.6°C 40.8°F4.9°C 68% Calm Calm -- 26.28 in889.9 mb - 0.00 in0.0 mm 0.00 in0.0 mm
07:35 PM 51.0°F10.6°C 41.6°F5.3°C 70% Calm Calm -- 26.28 in889.9 mb - 0.00 in0.0 mm 0.00 in0.0 mm
07:40 PM 50.0°F10.0°C 41.0°F5.0°C 71% Calm Calm -- 26.28 in889.9 mb - 0.00 in0.0 mm 0.00 in0.0 mm
07:45 PM 51.0°F10.6°C 40.8°F4.9°C 68% Calm Calm -- 26.28 in889.9 mb - 0.00 in0.0 mm 0.00 in0.0 mm
07:50 PM 49.0°F9.4°C 41.4°F5.2°C 75% Calm Calm -- 26.30 in890.6 mb - 0.00 in0.0 mm 0.00 in0.0 mm
07:55 PM 48.0°F8.9°C 40.5°F4.7°C 75% Calm Calm -- 26.29 in890.3 mb - 0.00 in0.0 mm 0.00 in0.0 mm
08:00 PM 48.0°F8.9°C 40.5°F4.7°C 75% Calm Calm 1.2 mph1.9 kmh 26.29 in890.3 mb - 0.00 in0.0 mm 0.00 in0.0 mm
08:10 PM 49.0°F9.4°C 40.0°F4.4°C 71% Calm Calm -- 26.30 in890.6 mb - 0.00 in0.0 mm 0.00 in0.0 mm
08:15 PM 48.0°F8.9°C 39.0°F3.9°C 71% Calm Calm -- 26.31 in891.0 mb - 0.00 in0.0 mm 0.00 in0.0 mm
08:20 PM 48.0°F8.9°C 40.5°F4.7°C 75% Calm Calm -- 26.31 in891.0 mb - 0.00 in0.0 mm 0.00 in0.0 mm
08:25 PM 47.0°F8.3°C 40.5°F4.7°C 78% Calm Calm -- 26.31 in891.0 mb - 0.00 in0.0 mm 0.00 in0.0 mm
08:30 PM 47.0°F8.3°C 40.8°F4.9°C 79% Calm Calm -- 26.32 in891.3 mb - 0.00 in0.0 mm 0.00 in0.0 mm
08:35 PM 47.0°F8.3°C 41.1°F5.1°C 80% Calm Calm -- 26.32 in891.3 mb - 0.00 in0.0 mm 0.00 in0.0 mm
08:40 PM 47.0°F8.3°C 39.8°F4.3°C 76% Calm Calm -- 26.32 in891.3 mb - 0.00 in0.0 mm 0.00 in0.0 mm
08:45 PM 47.0°F8.3°C 40.5°F4.7°C 78% Calm Calm -- 26.33 in891.6 mb - 0.00 in0.0 mm 0.00 in0.0 mm
08:50 PM 46.0°F7.8°C 40.2°F4.6°C 80% Calm Calm -- 26.33 in891.6 mb - 0.00 in0.0 mm 0.00 in0.0 mm
08:55 PM 46.0°F7.8°C 41.1°F5.1°C 83% Calm Calm -- 26.34 in892.0 mb - 0.00 in0.0 mm 0.00 in0.0 mm
09:00 PM 46.0°F7.8°C 40.2°F4.6°C 80% Calm Calm -- 26.34 in892.0 mb - 0.00 in0.0 mm 0.00 in0.0 mm
09:10 PM 46.0°F7.8°C 41.4°F5.2°C 84% Calm Calm -- 26.34 in892.0 mb - 0.00 in0.0 mm 0.00 in0.0 mm
09:15 PM 45.0°F7.2°C 40.1°F4.5°C 83% Calm Calm -- 26.34 in892.0 mb - 0.00 in0.0 mm 0.00 in0.0 mm
09:20 PM 45.0°F7.2°C 40.5°F4.7°C 84% Calm Calm -- 26.36 in892.7 mb - 0.00 in0.0 mm 0.00 in0.0 mm
09:25 PM 45.0°F7.2°C 40.5°F4.7°C 84% Calm Calm -- 26.36 in892.7 mb - 0.00 in0.0 mm 0.00 in0.0 mm
09:30 PM 45.0°F7.2°C 40.5°F4.7°C 84% Calm Calm -- 26.36 in892.7 mb - 0.00 in0.0 mm 0.00 in0.0 mm
09:35 PM 45.0°F7.2°C 40.5°F4.7°C 84% Calm Calm -- 26.35 in892.3 mb - 0.00 in0.0 mm 0.00 in0.0 mm
09:40 PM 45.0°F7.2°C 40.5°F4.7°C 84% Calm Calm -- 26.35 in892.3 mb - 0.00 in0.0 mm 0.00 in0.0 mm
09:45 PM 45.0°F7.2°C 40.8°F4.9°C 85% Calm Calm -- 26.36 in892.7 mb - 0.00 in0.0 mm 0.00 in0.0 mm
09:50 PM 45.0°F7.2°C 40.5°F4.7°C 84% Calm Calm -- 26.35 in892.3 mb - 0.00 in0.0 mm 0.00 in0.0 mm
09:55 PM 44.0°F6.7°C 40.1°F4.5°C 86% Calm Calm -- 26.36 in892.7 mb - 0.00 in0.0 mm 0.00 in0.0 mm
10:00 PM 44.0°F6.7°C 40.1°F4.5°C 86% Calm Calm -- 26.36 in892.7 mb - 0.00 in0.0 mm 0.00 in0.0 mm
10:10 PM 44.0°F6.7°C 39.2°F4.0°C 83% Calm Calm -- 26.36 in892.7 mb - 0.00 in0.0 mm 0.00 in0.0 mm
10:15 PM 44.0°F6.7°C 39.2°F4.0°C 83% Calm Calm -- 26.36 in892.7 mb - 0.00 in0.0 mm 0.00 in0.0 mm
10:20 PM 44.0°F6.7°C 39.5°F4.2°C 84% Calm Calm -- 26.36 in892.7 mb - 0.00 in0.0 mm 0.00 in0.0 mm
10:25 PM 44.0°F6.7°C 39.2°F4.0°C 83% Calm Calm -- 26.36 in892.7 mb - 0.00 in0.0 mm 0.00 in0.0 mm
10:30 PM 44.0°F6.7°C 40.1°F4.5°C 86% Calm Calm -- 26.36 in892.7 mb - 0.00 in0.0 mm 0.00 in0.0 mm
10:35 PM 44.0°F6.7°C 39.5°F4.2°C 84% Calm Calm -- 26.36 in892.7 mb - 0.00 in0.0 mm 0.00 in0.0 mm
10:40 PM 44.0°F6.7°C 39.5°F4.2°C 84% Calm Calm -- 26.37 in893.0 mb - 0.00 in0.0 mm 0.00 in0.0 mm
10:45 PM 44.0°F6.7°C 38.9°F3.8°C 82% Calm Calm -- 26.36 in892.7 mb - 0.00 in0.0 mm 0.00 in0.0 mm
10:50 PM 44.0°F6.7°C 38.9°F3.8°C 82% Calm Calm -- 26.36 in892.7 mb - 0.00 in0.0 mm 0.00 in0.0 mm
10:55 PM 44.0°F6.7°C 39.8°F4.3°C 85% Calm Calm -- 26.37 in893.0 mb - 0.00 in0.0 mm 0.00 in0.0 mm
11:00 PM 43.0°F6.1°C 38.8°F3.8°C 85% Calm Calm -- 26.38 in893.3 mb - 0.00 in0.0 mm 0.00 in0.0 mm
11:10 PM 43.0°F6.1°C 39.4°F4.1°C 87% Calm Calm -- 26.38 in893.3 mb - 0.00 in0.0 mm 0.00 in0.0 mm
11:15 PM 42.0°F5.6°C 38.4°F3.6°C 87% Calm Calm -- 26.38 in893.3 mb - 0.00 in0.0 mm 0.00 in0.0 mm
11:20 PM 42.0°F5.6°C 38.4°F3.6°C 87% Calm Calm -- 26.38 in893.3 mb - 0.00 in0.0 mm 0.00 in0.0 mm
11:25 PM 42.0°F5.6°C 38.4°F3.6°C 87% Calm Calm -- 26.38 in893.3 mb - 0.00 in0.0 mm 0.00 in0.0 mm
11:30 PM 42.0°F5.6°C 38.4°F3.6°C 87% Calm Calm -- 26.38 in893.3 mb - 0.00 in0.0 mm 0.00 in0.0 mm
11:35 PM 42.0°F5.6°C 38.1°F3.4°C 86% Calm Calm -- 26.38 in893.3 mb - 0.00 in0.0 mm 0.00 in0.0 mm
11:40 PM 42.0°F5.6°C 37.8°F3.2°C 85% Calm Calm -- 26.38 in893.3 mb - 0.00 in0.0 mm 0.00 in0.0 mm
11:45 PM 42.0°F5.6°C 37.5°F3.1°C 84% Calm Calm -- 26.39 in893.7 mb - 0.00 in0.0 mm 0.00 in0.0 mm
11:50 PM 42.0°F5.6°C 36.9°F2.7°C 82% Calm Calm -- 26.39 in893.7 mb - 0.00 in0.0 mm 0.00 in0.0 mm
11:55 PM 42.0°F5.6°C 37.2°F2.9°C 83% Calm Calm -- 26.39 in893.7 mb - 0.00 in0.0 mm 0.00 in0.0 mm